createdAt,value
2019-01-17T00:02:50.782Z,85.30
2019-01-17T00:09:11.587Z,85.30
2019-01-17T00:15:15.749Z,86.30
2019-01-17T00:21:19.803Z,87.00
2019-01-17T00:27:24.156Z,86.80
2019-01-17T00:33:37.206Z,87.80
2019-01-17T00:40:02.139Z,88.70
2019-01-17T00:46:24.755Z,89.00
2019-01-17T00:52:28.816Z,88.90
2019-01-17T00:58:38.591Z,88.80
2019-01-17T01:04:42.725Z,87.80
2019-01-17T01:10:46.838Z,88.10
2019-01-17T01:17:12.294Z,87.90
2019-01-17T01:23:22.335Z,88.10
2019-01-17T01:29:29.255Z,88.20
2019-01-17T01:35:39.302Z,88.80
2019-01-17T01:41:49.392Z,89.30
2019-01-17T01:47:59.591Z,90.00
2019-01-17T01:54:01.707Z,89.80
2019-01-17T02:00:05.170Z,89.30
2019-01-17T02:06:08.395Z,88.80
2019-01-17T02:12:10.738Z,88.70
2019-01-17T02:18:14.342Z,88.90
2019-01-17T02:24:16.540Z,88.80
2019-01-17T02:30:18.800Z,88.00
2019-01-17T02:36:21.129Z,88.30
2019-01-17T02:42:24.328Z,89.20
2019-01-17T02:48:26.750Z,88.40
2019-01-17T02:54:35.600Z,88.30
2019-01-17T03:00:33.252Z,88.10
2019-01-17T03:06:35.383Z,88.20
2019-01-17T03:12:37.679Z,87.40
2019-01-17T03:18:39.983Z,87.00
2019-01-17T03:24:43.138Z,86.90
2019-01-17T03:30:45.674Z,87.10
2019-01-17T03:36:48.078Z,87.80
2019-01-17T03:42:50.351Z,87.40
2019-01-17T03:48:53.674Z,87.80
2019-01-17T03:54:55.994Z,87.80
2019-01-17T04:00:58.164Z,86.80
2019-01-17T04:07:00.302Z,86.60
2019-01-17T04:13:02.627Z,87.00
2019-01-17T04:19:04.821Z,87.20
2019-01-17T04:25:07.888Z,87.10
2019-01-17T04:31:10.003Z,86.40
2019-01-17T04:37:12.187Z,87.50
2019-01-17T04:43:15.830Z,87.40
2019-01-17T04:49:18.027Z,86.70
2019-01-17T04:55:20.151Z,87.50
2019-01-17T05:01:22.531Z,86.30
2019-01-17T05:07:25.758Z,85.90
2019-01-17T05:13:30.086Z,86.60
2019-01-17T05:19:32.201Z,86.70
2019-01-17T05:25:34.307Z,86.00
2019-01-17T05:31:37.670Z,87.50
2019-01-17T05:37:39.774Z,86.20
2019-01-17T05:43:41.923Z,85.70
2019-01-17T05:49:45.194Z,85.30
2019-01-17T05:55:48.145Z,86.00
2019-01-17T06:01:50.465Z,85.30
2019-01-17T06:07:54.182Z,85.80
2019-01-17T06:13:57.563Z,85.70
2019-01-17T06:20:00.057Z,85.70
2019-01-17T06:26:02.245Z,87.20
2019-01-17T06:32:04.824Z,88.80
2019-01-17T06:38:07.224Z,88.00
2019-01-17T06:44:20.220Z,86.70
2019-01-17T06:50:19.955Z,86.70
2019-01-17T06:56:22.259Z,87.60
2019-01-17T07:02:24.585Z,88.90
2019-01-17T07:08:26.862Z,89.30
2019-01-17T07:14:29.255Z,88.90
2019-01-17T07:20:32.098Z,88.50
2019-01-17T07:26:34.282Z,87.30
2019-01-17T07:32:36.594Z,87.90
2019-01-17T07:38:38.736Z,90.00
2019-01-17T07:44:40.836Z,89.90
2019-01-17T07:50:43.365Z,90.10
2019-01-17T07:56:45.747Z,90.80
2019-01-17T08:02:47.951Z,91.50
2019-01-17T08:08:50.243Z,92.00
2019-01-17T08:14:52.702Z,91.50
2019-01-17T08:20:54.923Z,91.70
2019-01-17T08:26:57.151Z,91.60
2019-01-17T08:32:59.927Z,91.80
2019-01-17T08:39:04.187Z,91.80
2019-01-17T08:45:07.018Z,91.70
2019-01-17T08:51:09.255Z,91.80
2019-01-17T08:57:11.399Z,92.00
2019-01-17T09:03:13.824Z,91.40
2019-01-17T09:09:16.092Z,91.00
2019-01-17T09:15:20.080Z,90.60
2019-01-17T09:21:22.453Z,91.30
2019-01-17T09:27:25.071Z,91.40
2019-01-17T09:33:27.223Z,92.00
2019-01-17T09:39:29.682Z,92.10
2019-01-17T09:45:32.031Z,91.50
2019-01-17T09:51:34.824Z,91.10
2019-01-17T09:57:37.156Z,91.20
2019-01-17T10:03:39.391Z,91.10
2019-01-17T10:09:41.623Z,91.50
2019-01-17T10:15:48.176Z,91.20
2019-01-17T10:22:38.708Z,91.40
2019-01-17T10:29:30.706Z,91.40
2019-01-17T10:36:11.427Z,91.20
2019-01-17T10:43:01.522Z,91.00
2019-01-17T10:50:11.199Z,89.80
2019-01-17T10:57:01.284Z,90.10
2019-01-17T11:03:50.898Z,89.90
2019-01-17T11:10:11.210Z,87.10
2019-01-17T11:16:45.951Z,88.30
2019-01-17T11:23:32.240Z,86.70
2019-01-17T11:30:01.436Z,85.60
2019-01-17T11:36:35.830Z,81.90
2019-01-17T11:43:06.359Z,79.40
2019-01-17T11:49:57.374Z,77.60
2019-01-17T11:56:47.424Z,76.10
2019-01-17T12:03:40.635Z,77.00
2019-01-17T12:09:43.023Z,74.70
2019-01-17T12:15:47.485Z,71.40
2019-01-17T12:21:50.857Z,70.40
2019-01-17T12:27:52.977Z,71.10
2019-01-17T12:33:55.132Z,71.60
2019-01-17T12:39:59.346Z,70.40
2019-01-17T12:46:02.639Z,70.80
2019-01-17T12:52:04.797Z,73.80
2019-01-17T12:58:06.898Z,74.40
2019-01-17T13:04:09.143Z,75.70
2019-01-17T13:10:11.650Z,76.30
2019-01-17T13:16:15.309Z,74.70
2019-01-17T13:22:17.743Z,75.20
2019-01-17T13:28:19.859Z,74.50
2019-01-17T13:34:22.185Z,74.20
2019-01-17T13:40:25.426Z,73.40
2019-01-17T13:46:27.576Z,72.60
2019-01-17T13:52:29.848Z,72.70
2019-01-17T13:58:32.066Z,72.40
2019-01-17T14:04:35.227Z,73.30
2019-01-17T14:10:37.683Z,73.00
2019-01-17T14:16:40.699Z,72.80
2019-01-17T14:22:44.546Z,71.40
2019-01-17T14:28:49.121Z,69.60
2019-01-17T14:34:51.668Z,69.60
2019-01-17T14:40:54.318Z,69.70
2019-01-17T14:46:56.456Z,68.90
2019-01-17T14:52:58.919Z,69.20
2019-01-17T14:59:01.458Z,68.90
2019-01-17T15:05:05.162Z,70.70
2019-01-17T15:11:08.777Z,72.40
2019-01-17T15:17:11.088Z,73.60
2019-01-17T15:23:13.394Z,75.10
2019-01-17T15:29:15.943Z,75.00
2019-01-17T15:35:18.192Z,76.30
2019-01-17T15:41:20.752Z,75.40
2019-01-17T15:47:23.022Z,74.60
2019-01-17T15:53:25.113Z,75.50
2019-01-17T15:59:27.498Z,75.60
2019-01-17T16:05:29.788Z,77.00
2019-01-17T16:11:33.200Z,77.50
2019-01-17T16:17:35.727Z,77.60
2019-01-17T16:23:38.221Z,77.40
2019-01-17T16:29:40.796Z,77.40
2019-01-17T16:35:43.218Z,77.80
2019-01-17T16:41:46.691Z,78.90
2019-01-17T16:47:48.942Z,77.30
2019-01-17T16:53:52.353Z,76.70
2019-01-17T16:59:54.670Z,77.50
2019-01-17T17:05:58.055Z,76.70
2019-01-17T17:12:00.756Z,77.20
2019-01-17T17:18:03.915Z,78.20
2019-01-17T17:24:06.603Z,76.80
2019-01-17T17:30:19.560Z,77.80
2019-01-17T17:36:23.086Z,78.30
2019-01-17T17:42:26.379Z,78.40
2019-01-17T17:48:28.870Z,79.70
2019-01-17T17:54:31.236Z,81.00
2019-01-17T18:00:42.588Z,82.60
2019-01-17T18:06:44.868Z,84.00
2019-01-17T18:12:48.584Z,86.00
2019-01-17T18:18:52.001Z,88.00
2019-01-17T18:24:54.453Z,89.30
2019-01-17T18:30:56.726Z,90.10
2019-01-17T18:37:00.055Z,90.60
2019-01-17T18:43:03.467Z,90.80
2019-01-17T18:49:05.848Z,90.80
2019-01-17T18:55:08.185Z,90.80
2019-01-17T19:01:10.651Z,90.80
2019-01-17T19:07:14.557Z,90.50
2019-01-17T19:13:17.031Z,91.10
2019-01-17T19:19:20.276Z,91.50
2019-01-17T19:25:24.615Z,91.20
2019-01-17T19:31:26.735Z,91.30
2019-01-17T19:37:28.962Z,92.20
2019-01-17T19:43:31.346Z,92.20
2019-01-17T19:49:33.786Z,92.40
2019-01-17T19:55:36.072Z,92.20
2019-01-17T20:01:38.568Z,91.30
2019-01-17T20:07:40.951Z,90.60
2019-01-17T20:13:43.167Z,90.40
2019-01-17T20:19:45.514Z,90.30
2019-01-17T20:25:48.720Z,90.10
2019-01-17T20:31:51.059Z,89.30
2019-01-17T20:37:53.303Z,90.00
2019-01-17T20:43:55.771Z,89.00
2019-01-17T20:49:58.251Z,89.80
2019-01-17T20:56:00.517Z,89.20
2019-01-17T21:02:23.503Z,89.00
2019-01-17T21:08:25.968Z,88.20
2019-01-17T21:14:28.309Z,87.70
2019-01-17T21:20:30.815Z,88.20
2019-01-17T21:26:33.062Z,87.30
2019-01-17T21:32:37.127Z,86.50
2019-01-17T21:38:41.636Z,87.50
2019-01-17T21:44:43.871Z,86.80
2019-01-17T21:50:47.977Z,87.30
2019-01-17T21:56:50.396Z,86.90
2019-01-17T22:02:52.855Z,86.20
2019-01-17T22:08:57.059Z,86.80
2019-01-17T22:14:59.202Z,87.10
2019-01-17T22:21:02.652Z,87.00
2019-01-17T22:27:04.824Z,85.60
2019-01-17T22:33:08.341Z,86.50
2019-01-17T22:39:14.471Z,85.40
2019-01-17T22:45:24.782Z,84.30
2019-01-17T22:51:26.950Z,85.10
2019-01-17T22:57:29.240Z,84.60
2019-01-17T23:03:39.878Z,83.20
2019-01-17T23:09:43.344Z,82.80
2019-01-17T23:15:45.848Z,82.60
2019-01-17T23:21:48.575Z,83.00
2019-01-17T23:27:50.825Z,82.90
2019-01-17T23:33:53.198Z,83.70
2019-01-17T23:39:55.384Z,81.20
2019-01-17T23:45:58.439Z,81.00
2019-01-17T23:52:02.679Z,80.90
2019-01-17T23:58:05.188Z,81.90
